createdAt,value
2024-01-06T00:00:41.116Z,9.03
2024-01-06T00:03:08.359Z,3.90
2024-01-06T00:05:35.523Z,4.83
2024-01-06T00:08:02.600Z,10.37
2024-01-06T00:10:29.756Z,6.67
2024-01-06T00:12:58.869Z,6.67
2024-01-06T00:16:09.614Z,8.67
2024-01-06T00:18:36.891Z,9.67
2024-01-06T00:21:14.213Z,7.80
2024-01-06T00:23:44.295Z,5.97
2024-01-06T00:26:11.968Z,10.30
2024-01-06T00:28:40.463Z,12.03
2024-01-06T00:31:08.530Z,8.80
2024-01-06T00:33:35.915Z,13.93
2024-01-06T00:36:03.162Z,9.47
2024-01-06T00:38:30.272Z,8.83
2024-01-06T00:40:57.281Z,9.43
2024-01-06T00:43:24.345Z,11.73
2024-01-06T00:45:51.428Z,8.43
2024-01-06T00:48:18.713Z,12.67
2024-01-06T00:50:45.768Z,6.60
2024-01-06T00:53:13.767Z,10.70
2024-01-06T00:55:40.764Z,7.87
2024-01-06T00:58:07.823Z,11.30
2024-01-06T01:00:35.115Z,10.20
2024-01-06T01:03:02.213Z,9.47
2024-01-06T01:05:29.579Z,7.00
2024-01-06T01:07:56.636Z,15.80
2024-01-06T01:10:23.696Z,6.53
2024-01-06T01:12:50.841Z,5.23
2024-01-06T01:15:18.008Z,8.47
2024-01-06T01:17:45.444Z,9.17
2024-01-06T01:20:12.743Z,9.73
2024-01-06T01:22:39.819Z,9.57
2024-01-06T01:25:09.285Z,8.53
2024-01-06T01:27:36.486Z,6.23
2024-01-06T01:30:04.558Z,5.83
2024-01-06T01:32:31.861Z,8.30
2024-01-06T01:34:59.101Z,11.03
2024-01-06T01:37:26.196Z,4.03
2024-01-06T01:39:53.290Z,13.67
2024-01-06T01:42:20.402Z,9.73
2024-01-06T01:44:47.440Z,13.57
2024-01-06T01:47:19.498Z,8.27
2024-01-06T01:49:48.327Z,8.90
2024-01-06T01:52:16.369Z,8.73
2024-01-06T01:54:44.863Z,9.87
2024-01-06T01:58:14.467Z,12.43
2024-01-06T02:00:41.766Z,6.90
2024-01-06T02:03:27.530Z,9.53
2024-01-06T02:05:55.107Z,8.03
2024-01-06T02:08:22.333Z,4.70
2024-01-06T02:10:49.629Z,10.27
2024-01-06T02:13:16.743Z,6.87
2024-01-06T02:15:43.878Z,9.40
2024-01-06T02:18:11.318Z,10.43
2024-01-06T02:20:38.664Z,7.43
2024-01-06T02:23:05.934Z,5.77
2024-01-06T02:25:34.446Z,11.97
2024-01-06T02:28:01.497Z,8.20
2024-01-06T02:30:28.730Z,12.53
2024-01-06T02:32:56.002Z,8.63
2024-01-06T02:35:23.117Z,12.57
2024-01-06T02:37:50.167Z,10.73
2024-01-06T02:40:17.402Z,11.83
2024-01-06T02:42:44.448Z,7.87
2024-01-06T02:45:11.578Z,8.23
2024-01-06T02:47:38.758Z,15.13
2024-01-06T02:50:07.058Z,7.73
2024-01-06T02:52:34.236Z,8.17
2024-01-06T02:55:02.308Z,15.53
2024-01-06T02:57:32.678Z,8.07
2024-01-06T02:59:59.789Z,8.93
2024-01-06T03:02:27.008Z,14.43
2024-01-06T03:04:56.063Z,8.33
2024-01-06T03:07:23.282Z,7.63
2024-01-06T03:09:50.376Z,8.07
2024-01-06T03:12:17.877Z,5.53
2024-01-06T03:14:44.930Z,13.80
2024-01-06T03:17:11.958Z,6.33
2024-01-06T03:19:40.215Z,6.57
2024-01-06T03:22:07.422Z,9.00
2024-01-06T03:24:34.665Z,6.07
2024-01-06T03:27:01.768Z,6.47
2024-01-06T03:29:29.560Z,8.30
2024-01-06T03:31:56.666Z,7.50
2024-01-06T03:34:23.858Z,9.30
2024-01-06T03:36:51.121Z,4.67
2024-01-06T03:43:17.644Z,9.53
2024-01-06T03:45:59.070Z,8.50
2024-01-06T03:48:28.385Z,4.97
2024-01-06T03:50:55.642Z,7.87
2024-01-06T03:53:25.322Z,8.83
2024-01-06T03:55:53.955Z,6.23
2024-01-06T03:58:21.096Z,8.03
2024-01-06T04:00:48.307Z,7.90
2024-01-06T04:03:15.592Z,8.70
2024-01-06T04:05:43.837Z,7.47
2024-01-06T04:08:10.938Z,11.57
2024-01-06T04:10:38.047Z,8.60
2024-01-06T04:13:05.722Z,7.53
2024-01-06T04:15:32.843Z,5.37
2024-01-06T04:18:04.808Z,3.30
2024-01-06T04:20:33.253Z,5.93
2024-01-06T04:23:00.530Z,3.90
2024-01-06T04:25:27.619Z,10.50
2024-01-06T04:27:54.889Z,10.17
2024-01-06T04:30:22.287Z,6.97
2024-01-06T04:32:49.745Z,4.87
2024-01-06T04:35:17.350Z,4.47
2024-01-06T04:37:44.433Z,8.20
2024-01-06T04:40:12.626Z,7.03
2024-01-06T04:42:40.092Z,6.03
2024-01-06T04:45:08.154Z,7.63
2024-01-06T04:47:35.428Z,8.97
2024-01-06T04:50:02.641Z,2.37
2024-01-06T04:52:31.854Z,10.50
2024-01-06T04:54:59.114Z,7.40
2024-01-06T04:57:26.308Z,7.33
2024-01-06T04:59:53.360Z,7.23
2024-01-06T05:02:20.681Z,5.77
2024-01-06T05:04:47.808Z,7.23
2024-01-06T05:07:15.028Z,6.47
2024-01-06T05:09:42.148Z,9.93
2024-01-06T05:12:09.650Z,9.37
2024-01-06T05:14:36.781Z,6.97
2024-01-06T05:17:03.943Z,11.07
2024-01-06T05:19:31.219Z,6.27
2024-01-06T05:22:02.276Z,11.00
2024-01-06T05:24:33.734Z,8.63
2024-01-06T05:27:01.940Z,8.63
2024-01-06T05:29:50.824Z,4.90
2024-01-06T05:32:18.867Z,6.13
2024-01-06T05:34:46.759Z,3.43
2024-01-06T05:37:14.091Z,5.53
2024-01-06T05:39:41.466Z,7.03
2024-01-06T05:42:14.030Z,4.20
2024-01-06T05:44:41.221Z,5.93
2024-01-06T05:47:09.645Z,5.30
2024-01-06T05:49:36.950Z,8.47
2024-01-06T05:52:04.273Z,10.30
2024-01-06T05:54:31.785Z,9.00
2024-01-06T05:56:59.062Z,5.30
2024-01-06T05:59:27.089Z,7.30
2024-01-06T06:01:54.139Z,8.90
2024-01-06T06:04:21.376Z,6.90
2024-01-06T06:06:48.560Z,4.83
2024-01-06T06:09:16.881Z,4.47
2024-01-06T06:11:44.276Z,6.63
2024-01-06T06:14:11.406Z,4.37
2024-01-06T06:16:38.482Z,6.20
2024-01-06T06:19:05.904Z,4.10
2024-01-06T06:21:33.251Z,5.43
2024-01-06T06:24:00.412Z,4.83
2024-01-06T06:26:29.534Z,5.20
2024-01-06T06:28:56.651Z,4.67
2024-01-06T06:31:23.774Z,3.67
2024-01-06T06:33:51.250Z,5.77
2024-01-06T06:36:18.374Z,2.90
2024-01-06T06:38:45.500Z,4.97
2024-01-06T06:41:12.615Z,3.67
2024-01-06T06:43:39.759Z,8.77
2024-01-06T06:46:06.954Z,7.77
2024-01-06T06:48:36.826Z,6.23
2024-01-06T06:51:04.542Z,11.30
2024-01-06T06:53:31.637Z,4.27
2024-01-06T06:55:58.719Z,4.30
2024-01-06T06:58:25.782Z,6.40
2024-01-06T07:00:54.179Z,6.57
2024-01-06T07:03:22.214Z,7.07
2024-01-06T07:05:50.457Z,7.77
2024-01-06T07:09:08.612Z,8.63
2024-01-06T07:11:35.657Z,5.53
2024-01-06T07:14:05.565Z,6.90
2024-01-06T07:16:32.626Z,9.83
2024-01-06T07:18:59.911Z,6.00
2024-01-06T07:21:26.990Z,6.83
2024-01-06T07:23:54.131Z,8.57
2024-01-06T07:26:21.183Z,10.57
2024-01-06T07:28:48.285Z,8.83
2024-01-06T07:31:16.201Z,12.43
2024-01-06T07:33:43.318Z,11.60
2024-01-06T07:36:10.433Z,19.40
2024-01-06T07:38:37.842Z,13.07
2024-01-06T07:41:07.546Z,11.33
2024-01-06T07:43:34.643Z,11.00
2024-01-06T07:46:01.885Z,12.47
2024-01-06T07:48:29.242Z,13.90
2024-01-06T07:50:56.249Z,13.33
2024-01-06T07:53:23.344Z,12.70
2024-01-06T07:55:50.472Z,13.63
2024-01-06T07:58:18.457Z,16.10
2024-01-06T08:00:46.581Z,14.97
2024-01-06T08:03:13.699Z,13.83
2024-01-06T08:05:41.028Z,17.97
2024-01-06T08:08:08.276Z,20.13
2024-01-06T08:10:35.346Z,15.23
2024-01-06T08:13:03.746Z,16.40
2024-01-06T08:15:31.109Z,20.63
2024-01-06T08:17:58.249Z,15.00
2024-01-06T08:20:25.473Z,18.73
2024-01-06T08:22:52.730Z,17.47
2024-01-06T08:25:19.817Z,19.53
2024-01-06T08:27:49.055Z,18.03
2024-01-06T08:30:16.376Z,19.63
2024-01-06T08:32:43.820Z,22.30
2024-01-06T08:35:11.269Z,17.07
2024-01-06T08:37:38.249Z,21.70
2024-01-06T08:40:07.023Z,22.30
2024-01-06T08:42:34.264Z,15.87
2024-01-06T08:45:01.807Z,19.90
2024-01-06T08:47:28.874Z,17.23
2024-01-06T08:50:44.398Z,18.83
2024-01-06T08:54:14.945Z,15.53
2024-01-06T08:56:51.048Z,19.57
2024-01-06T08:59:18.347Z,15.57
2024-01-06T09:01:47.902Z,18.97
2024-01-06T09:04:16.707Z,19.70
2024-01-06T09:06:43.857Z,17.13
2024-01-06T09:09:12.049Z,16.23
2024-01-06T09:11:41.896Z,17.77
2024-01-06T09:14:08.979Z,24.03
2024-01-06T09:16:36.043Z,17.17
2024-01-06T09:19:03.228Z,16.30
2024-01-06T09:21:30.339Z,16.93
2024-01-06T09:23:57.394Z,15.37
2024-01-06T09:26:24.438Z,17.10
2024-01-06T09:28:51.542Z,12.67
2024-01-06T09:31:18.632Z,13.90
2024-01-06T09:33:45.849Z,12.53
2024-01-06T09:36:15.220Z,13.87
2024-01-06T09:38:42.454Z,12.40
2024-01-06T09:41:09.682Z,8.87
2024-01-06T09:43:37.523Z,13.77
2024-01-06T09:46:33.174Z,9.93
2024-01-06T09:49:01.266Z,15.27
2024-01-06T09:51:28.693Z,14.70
2024-01-06T09:54:08.693Z,11.73
2024-01-06T09:56:36.353Z,9.77
2024-01-06T09:59:03.466Z,13.87
2024-01-06T10:01:30.803Z,10.10
2024-01-06T10:03:58.082Z,10.87
2024-01-06T10:06:25.331Z,10.63
2024-01-06T10:08:54.466Z,9.70
2024-01-06T10:11:23.817Z,12.87
2024-01-06T10:13:52.397Z,9.57
2024-01-06T10:16:20.672Z,10.00
2024-01-06T10:18:52.521Z,10.50
2024-01-06T10:21:23.962Z,10.73
2024-01-06T10:23:52.344Z,13.70
2024-01-06T10:26:20.512Z,10.43
2024-01-06T10:28:51.269Z,13.13
2024-01-06T10:31:20.595Z,11.37
2024-01-06T10:34:30.330Z,12.80
2024-01-06T10:37:30.429Z,9.07
2024-01-06T10:40:11.255Z,11.00
2024-01-06T10:42:40.943Z,14.20
2024-01-06T10:45:11.086Z,12.03
2024-01-06T10:47:39.764Z,10.03
2024-01-06T10:50:09.339Z,11.23
2024-01-06T10:52:38.911Z,10.37
2024-01-06T10:55:07.427Z,11.57
2024-01-06T10:57:35.812Z,10.53
2024-01-06T11:00:03.376Z,7.13
2024-01-06T11:02:32.963Z,7.83
2024-01-06T11:05:00.263Z,5.77
2024-01-06T11:07:28.535Z,7.90
2024-01-06T11:10:20.182Z,8.10
2024-01-06T11:13:08.983Z,7.20
2024-01-06T11:15:50.969Z,7.90
2024-01-06T11:18:39.411Z,5.97
2024-01-06T11:21:15.766Z,7.07
2024-01-06T11:23:42.864Z,10.77
2024-01-06T11:26:10.716Z,12.37
2024-01-06T11:28:48.284Z,16.17
2024-01-06T11:31:15.895Z,18.40
2024-01-06T11:33:50.324Z,11.87
2024-01-06T11:36:18.283Z,8.63
2024-01-06T11:38:51.650Z,12.90
2024-01-06T11:41:52.324Z,11.23
2024-01-06T11:44:23.934Z,9.20
2024-01-06T11:46:52.119Z,9.73
2024-01-06T11:49:22.344Z,14.07
2024-01-06T11:51:50.777Z,10.63
2024-01-06T11:54:18.213Z,15.10
2024-01-06T11:56:45.736Z,7.87
2024-01-06T11:59:13.516Z,8.80
2024-01-06T12:01:41.968Z,14.27
2024-01-06T12:04:09.252Z,7.73
2024-01-06T12:06:42.487Z,7.30
2024-01-06T12:09:15.527Z,6.73
2024-01-06T12:11:46.321Z,14.23
2024-01-06T12:14:14.685Z,8.80
2024-01-06T12:17:21.414Z,8.10
2024-01-06T12:20:44.111Z,10.03
2024-01-06T12:23:11.299Z,10.47
2024-01-06T12:25:41.087Z,10.43
2024-01-06T12:28:09.052Z,7.57
2024-01-06T12:30:37.269Z,6.90
2024-01-06T12:33:06.039Z,7.33
2024-01-06T12:35:36.023Z,6.83
2024-01-06T12:38:08.606Z,11.00
2024-01-06T12:40:42.656Z,13.00
2024-01-06T12:43:10.365Z,11.13
2024-01-06T12:45:37.729Z,7.77
2024-01-06T12:48:05.357Z,10.03
2024-01-06T12:50:32.581Z,11.33
2024-01-06T12:52:59.621Z,9.17
2024-01-06T12:55:26.911Z,6.63
2024-01-06T12:57:54.153Z,7.23
2024-01-06T13:00:21.603Z,13.70
2024-01-06T13:02:48.804Z,11.00
2024-01-06T13:05:16.942Z,8.67
2024-01-06T13:07:44.192Z,9.13
2024-01-06T13:10:11.534Z,7.47
2024-01-06T13:12:39.561Z,8.17
2024-01-06T13:15:12.366Z,7.57
2024-01-06T13:17:39.771Z,8.37
2024-01-06T13:20:09.286Z,9.53
2024-01-06T13:22:36.472Z,4.30
2024-01-06T13:25:04.198Z,5.60
2024-01-06T13:27:31.237Z,8.93
2024-01-06T13:29:58.366Z,6.27
2024-01-06T13:32:25.450Z,6.83
2024-01-06T13:34:55.493Z,4.37
2024-01-06T13:37:25.400Z,8.17
2024-01-06T13:39:52.702Z,4.07
2024-01-06T13:42:22.714Z,10.00
2024-01-06T13:44:50.374Z,3.50
2024-01-06T13:47:18.354Z,8.27
2024-01-06T13:49:45.631Z,7.17
2024-01-06T13:52:15.866Z,5.53
2024-01-06T13:54:43.348Z,6.73
2024-01-06T13:57:11.753Z,6.00
2024-01-06T13:59:43.524Z,8.20
2024-01-06T14:02:55.763Z,10.13
2024-01-06T14:05:29.795Z,5.97
2024-01-06T14:07:56.931Z,4.57
2024-01-06T14:10:24.098Z,6.03
2024-01-06T14:12:51.225Z,5.77
2024-01-06T14:15:18.512Z,5.13
2024-01-06T14:17:50.856Z,6.57
2024-01-06T14:20:19.626Z,5.90
2024-01-06T14:22:47.973Z,7.20
2024-01-06T14:25:16.648Z,6.10
2024-01-06T14:27:44.443Z,6.03
2024-01-06T14:30:12.172Z,5.67
2024-01-06T14:32:39.789Z,4.93
2024-01-06T14:35:07.768Z,6.33
2024-01-06T14:37:35.040Z,6.70
2024-01-06T14:40:06.622Z,2.50
2024-01-06T14:42:33.979Z,4.33
2024-01-06T14:45:01.228Z,6.90
2024-01-06T14:47:28.360Z,5.80
2024-01-06T14:49:55.653Z,9.17
2024-01-06T14:52:22.944Z,5.00
2024-01-06T14:54:50.605Z,6.83
2024-01-06T14:57:17.778Z,4.77
2024-01-06T14:59:44.855Z,7.23
2024-01-06T15:02:11.972Z,8.47
2024-01-06T15:04:40.163Z,4.60
2024-01-06T15:07:07.350Z,5.50
2024-01-06T15:09:34.560Z,4.07
2024-01-06T15:12:01.704Z,9.03
2024-01-06T15:14:28.723Z,8.57
2024-01-06T15:16:55.840Z,4.83
2024-01-06T15:19:25.045Z,6.13
2024-01-06T15:21:52.229Z,6.30
2024-01-06T15:24:19.412Z,7.17
2024-01-06T15:26:46.462Z,7.83
2024-01-06T15:29:13.964Z,3.67
2024-01-06T15:31:41.128Z,4.73
2024-01-06T15:34:08.481Z,3.50
2024-01-06T15:36:36.908Z,3.13
2024-01-06T15:39:04.079Z,7.90
2024-01-06T15:41:31.463Z,3.63
2024-01-06T15:43:59.569Z,4.77
2024-01-06T15:46:44.280Z,4.30
2024-01-06T15:49:21.183Z,8.47
2024-01-06T15:51:48.390Z,5.27
2024-01-06T15:54:15.578Z,10.10
2024-01-06T15:56:42.609Z,6.17
2024-01-06T15:59:09.731Z,9.63
2024-01-06T16:01:36.909Z,8.17
2024-01-06T16:04:04.292Z,6.70
2024-01-06T16:06:34.556Z,4.67
2024-01-06T16:09:03.460Z,6.33
2024-01-06T16:11:30.520Z,7.97
2024-01-06T16:13:57.540Z,6.27
2024-01-06T16:16:29.608Z,8.87
2024-01-06T16:18:56.907Z,6.63
2024-01-06T16:21:25.612Z,5.23
2024-01-06T16:23:53.120Z,3.80
2024-01-06T16:26:20.407Z,7.40
2024-01-06T16:28:47.621Z,8.57
2024-01-06T16:31:14.770Z,10.13
2024-01-06T16:33:42.073Z,7.30
2024-01-06T16:36:11.584Z,8.57
2024-01-06T16:38:38.980Z,5.53
2024-01-06T16:41:06.286Z,11.47
2024-01-06T16:43:39.756Z,6.40
2024-01-06T16:46:07.528Z,12.23
2024-01-06T16:48:35.072Z,7.27
2024-01-06T16:51:02.300Z,7.93
2024-01-06T16:53:29.647Z,12.10
2024-01-06T16:55:58.109Z,5.43
2024-01-06T16:58:25.281Z,9.27
2024-01-06T17:00:53.457Z,5.87
2024-01-06T17:03:22.011Z,7.23
2024-01-06T17:05:49.229Z,10.03
2024-01-06T17:08:16.316Z,9.03
2024-01-06T17:10:43.478Z,8.17
2024-01-06T17:13:10.674Z,9.67
2024-01-06T17:15:38.348Z,6.03
2024-01-06T17:18:07.886Z,4.87
2024-01-06T17:20:39.363Z,3.70
2024-01-06T17:23:06.868Z,7.53
2024-01-06T17:25:35.258Z,5.30
2024-01-06T17:28:43.515Z,3.33
2024-01-06T17:35:10.674Z,5.10
2024-01-06T17:37:38.001Z,7.30
2024-01-06T17:40:06.547Z,5.73
2024-01-06T17:42:35.023Z,4.03
2024-01-06T17:45:04.512Z,6.53
2024-01-06T17:47:33.079Z,11.63
2024-01-06T17:50:00.395Z,6.83
2024-01-06T17:52:28.619Z,8.80
2024-01-06T17:54:56.744Z,8.20
2024-01-06T17:57:23.875Z,7.03
2024-01-06T17:59:53.640Z,7.33
2024-01-06T18:02:20.737Z,10.57
2024-01-06T18:04:48.308Z,6.93
2024-01-06T18:07:15.588Z,11.63
2024-01-06T18:09:42.826Z,11.63
2024-01-06T18:12:10.694Z,6.20
2024-01-06T18:14:39.148Z,10.47
2024-01-06T18:17:07.630Z,8.70
2024-01-06T18:19:34.822Z,6.77
2024-01-06T18:22:02.032Z,6.30
2024-01-06T18:24:31.875Z,9.93
2024-01-06T18:27:00.064Z,6.13
2024-01-06T18:29:27.194Z,7.03
2024-01-06T18:31:54.339Z,5.07
2024-01-06T18:34:21.666Z,6.70
2024-01-06T18:36:49.029Z,6.03
2024-01-06T18:39:16.238Z,7.80
2024-01-06T18:41:43.364Z,7.10
2024-01-06T18:44:11.597Z,6.80
2024-01-06T18:46:39.481Z,12.07
2024-01-06T18:49:07.850Z,7.40
2024-01-06T18:51:38.506Z,9.93
2024-01-06T18:54:12.546Z,9.37
2024-01-06T18:56:43.523Z,8.67
2024-01-06T18:59:10.656Z,10.50
2024-01-06T19:01:37.808Z,7.53
2024-01-06T19:04:05.217Z,9.53
2024-01-06T19:06:32.844Z,9.73
2024-01-06T19:09:00.000Z,9.70
2024-01-06T19:11:38.773Z,11.00
2024-01-06T19:15:09.169Z,11.67
2024-01-06T19:17:38.670Z,11.53
2024-01-06T19:20:07.188Z,8.70
2024-01-06T19:22:34.431Z,8.87
2024-01-06T19:25:01.497Z,10.33
2024-01-06T19:27:28.751Z,13.03
2024-01-06T19:29:55.896Z,14.63
2024-01-06T19:32:23.075Z,11.93
2024-01-06T19:34:55.178Z,10.73
2024-01-06T19:37:22.613Z,11.37
2024-01-06T19:39:49.762Z,9.73
2024-01-06T19:42:17.350Z,9.33
2024-01-06T19:44:45.264Z,9.57
2024-01-06T19:47:13.628Z,8.37
2024-01-06T19:49:40.802Z,12.20
2024-01-06T19:52:08.063Z,9.63
2024-01-06T19:54:37.674Z,12.07
2024-01-06T19:57:05.929Z,10.03
2024-01-06T19:59:33.034Z,9.17
2024-01-06T20:02:00.274Z,8.87
2024-01-06T20:04:28.019Z,10.50
2024-01-06T20:06:55.511Z,10.97
2024-01-06T20:09:22.726Z,10.27
2024-01-06T20:11:49.784Z,11.17
2024-01-06T20:14:16.987Z,11.27
2024-01-06T20:16:44.238Z,11.80
2024-01-06T20:19:12.405Z,11.73
2024-01-06T20:21:39.491Z,11.40
2024-01-06T20:24:06.923Z,12.53
2024-01-06T20:26:33.973Z,11.13
2024-01-06T20:29:01.109Z,13.67
2024-01-06T20:31:28.306Z,11.90
2024-01-06T20:33:55.899Z,11.40
2024-01-06T20:36:23.149Z,10.90
2024-01-06T20:38:52.972Z,8.73
2024-01-06T20:41:20.161Z,11.93
2024-01-06T20:43:47.381Z,16.70
2024-01-06T20:46:20.838Z,12.53
2024-01-06T20:48:48.618Z,12.63
2024-01-06T20:51:19.617Z,14.63
2024-01-06T20:53:52.746Z,12.07
2024-01-06T20:57:00.656Z,11.23
2024-01-06T20:59:50.052Z,10.33
2024-01-06T21:02:18.729Z,10.50
2024-01-06T21:04:45.977Z,11.43
2024-01-06T21:07:13.175Z,10.77
2024-01-06T21:09:41.899Z,13.03
2024-01-06T21:12:09.286Z,9.63
2024-01-06T21:14:38.042Z,10.53
2024-01-06T21:17:05.469Z,9.57
2024-01-06T21:19:33.470Z,8.53
2024-01-06T21:22:00.930Z,9.70
2024-01-06T21:24:29.218Z,8.17
2024-01-06T21:26:56.508Z,8.20
2024-01-06T21:29:24.031Z,11.47
2024-01-06T21:31:51.292Z,9.63
2024-01-06T21:34:21.638Z,7.70
2024-01-06T21:36:51.082Z,8.93
2024-01-06T21:39:18.164Z,8.97
2024-01-06T21:41:46.787Z,8.33
2024-01-06T21:44:13.975Z,10.57
2024-01-06T21:46:41.362Z,10.87
2024-01-06T21:49:08.513Z,9.90
2024-01-06T21:51:51.384Z,13.53
2024-01-06T21:54:19.201Z,10.33
2024-01-06T21:56:49.514Z,11.07
2024-01-06T21:59:16.725Z,8.30
2024-01-06T22:01:45.116Z,7.40
2024-01-06T22:04:13.596Z,8.97
2024-01-06T22:06:40.880Z,9.93
2024-01-06T22:09:11.515Z,10.37
2024-01-06T22:11:42.210Z,10.73
2024-01-06T22:14:09.335Z,9.93
2024-01-06T22:16:36.538Z,11.70
2024-01-06T22:19:05.322Z,11.30
2024-01-06T22:21:33.306Z,8.13
2024-01-06T22:24:00.635Z,10.77
2024-01-06T22:26:30.120Z,10.93
2024-01-06T22:28:57.331Z,12.40
2024-01-06T22:31:24.524Z,12.37
2024-01-06T22:33:51.785Z,10.43
2024-01-06T22:36:18.957Z,9.80
2024-01-06T22:39:54.992Z,12.90
2024-01-06T22:43:01.145Z,9.70
2024-01-06T22:45:42.073Z,9.37
2024-01-06T22:48:09.407Z,9.53
2024-01-06T22:50:36.586Z,10.23
2024-01-06T22:53:05.600Z,11.20
2024-01-06T22:55:32.749Z,9.67
2024-01-06T22:58:00.018Z,13.80
2024-01-06T23:00:29.275Z,11.13
2024-01-06T23:02:57.888Z,8.43
2024-01-06T23:05:24.971Z,8.90
2024-01-06T23:07:52.143Z,7.73
2024-01-06T23:10:19.816Z,9.80
2024-01-06T23:12:49.002Z,8.37
2024-01-06T23:15:17.360Z,10.33
2024-01-06T23:17:44.855Z,9.87
2024-01-06T23:20:13.781Z,8.87
2024-01-06T23:22:41.985Z,10.07
2024-01-06T23:25:09.434Z,9.67
2024-01-06T23:27:36.639Z,8.60
2024-01-06T23:30:05.486Z,8.70
2024-01-06T23:32:32.748Z,7.83
2024-01-06T23:34:59.881Z,8.30
2024-01-06T23:37:27.082Z,7.73
2024-01-06T23:39:54.279Z,9.33
2024-01-06T23:42:23.276Z,8.43
2024-01-06T23:44:53.984Z,8.73
2024-01-06T23:47:21.203Z,8.50
2024-01-06T23:49:48.393Z,7.70
2024-01-06T23:52:15.462Z,8.83
2024-01-06T23:54:43.000Z,9.67
2024-01-06T23:57:10.107Z,9.70
2024-01-06T23:59:41.293Z,9.53
